Latest Coastal Weather Observations for Sunshine Coast Airport

IDQ60701

Issued at 6:52 pm EST Tuesday 25 January 2022 (issued every 10 minutes, with the page automatically refreshed every 10 minutes)

About coastal observations | Map of coastal stations | Coastal observations for QLD | Marine services | Other Formats
Station Details ID: 040861 Name: SUNSHINE COAST AIRPORT Lat: -26.60 Lon: 153.09 Height: 3.42 m
Data from the previous 72 hours. | See also: Recent months at Sunshine Coast Airport
Date/Time
EST
Wind Sea
Height
m
Swell Vis
km
Cloud Weather Temp
°C
Press
MSL
hPa
Rain since
9am
mm
Dir  Spd
kts
Gust
kts
Height
m
Period
s
Dir
25/06:30pm NE 6 7 - - - - 10 - - 25.4 1009.1 0.0
25/06:00pm NE 6 8 - - - - 10 Mostly cloudy - 26.0 1008.8 0.0
25/05:30pm NE 7 8 - - - - 10 - - 26.3 1008.7 0.0
25/05:00pm ENE 7 9 - - - - 10 - - 26.7 1008.5 0.0
25/04:30pm ENE 7 10 - - - - 10 - - 26.7 1008.5 0.0
25/04:00pm ENE 8 10 - - - - 10 - - 27.0 1008.6 0.0
25/03:30pm ENE 9 11 - - - - 10 - - 27.1 1008.6 0.0
25/03:00pm E 9 11 - - - - 10 Mostly clear - 27.4 1008.7 0.0
25/02:30pm E 10 12 - - - - 10 - - 28.4 1008.9 0.0
25/02:00pm E 9 11 - - - - 10 - - 28.5 1009.1 0.0
25/01:30pm E 10 12 - - - - 10 - - 28.4 1009.4 0.0
25/01:00pm E 9 12 - - - - 10 - - 28.9 1009.8 0.0
25/12:30pm E 9 12 - - - - 10 - - 28.3 1010.0 0.0
25/12:00pm E 9 12 - - - - 10 - - 28.9 1010.2 0.0
25/11:30am E 8 10 - - - - 10 - - 28.6 1010.7 0.0
25/11:00am ESE 8 11 - - - - 10 - - 28.2 1011.1 0.0
25/10:30am SE 8 10 - - - - 10 Partly cloudy - 27.0 1011.1 0.0
25/10:00am ESE 9 11 - - - - 10 Partly cloudy - 27.4 1011.3 0.0
25/09:30am SE 9 13 - - - - 10 - - 26.2 1011.4 0.0
25/09:00am SE 11 13 - - - - 10 Mostly clear - 27.5 1011.4 0.0
25/08:30am SSE 7 10 - - - - 10 - - 27.3 1011.5 0.0
25/08:00am S 10 13 - - - - 10 Partly cloudy - 26.1 1011.6 0.0
25/07:30am S 7 11 - - - - 10 Partly cloudy - 26.1 1011.5 0.0
25/07:00am SSW 5 7 - - - - 10 Partly cloudy - 24.3 1011.1 0.0
25/06:30am WSW 4 5 - - - - 10 Partly cloudy - 23.1 1011.0 0.0
25/06:00am W 4 4 - - - - 10 Mostly cloudy - 22.2 1010.6 0.0
25/05:30am WNW 5 6 - - - - 10 Partly cloudy - 21.7 1010.4 0.0
25/05:00am W 3 5 - - - - 10 Cloudy - 21.9 1010.0 0.0
25/04:30am WSW 4 6 - - - - 10 Partly cloudy - 22.1 1009.5 0.0
25/04:00am W 3 4 - - - - 10 Cloudy - 22.3 1009.4 0.0
25/03:30am W 4 4 - - - - 10 Partly cloudy - 22.4 1009.2 0.0
25/03:00am W 4 5 - - - - 10 Cloudy - 22.4 1009.2 0.0
25/02:30am W 4 5 - - - - 10 Partly cloudy - 22.5 1009.3 0.0
25/02:00am SW 5 7 - - - - 10 Partly cloudy - 22.6 1009.4 0.0
25/01:30am NW 4 6 - - - - 10 Partly cloudy - 22.1 1009.4 0.0
25/01:00am WNW 4 5 - - - - 10 Partly cloudy - 22.3 1009.6 0.0
25/12:30am W 5 7 - - - - 10 Partly cloudy - 22.4 1009.7 0.0
25/12:00am WNW 5 6 - - - - 10 Mostly cloudy - 22.5 1009.9 0.0
 
Date/Time
EST
Wind Sea
Height
m
Swell Vis
km
Cloud Weather Temp
°C
Press
MSL
hPa
Rain since
9am
mm
Dir  Spd
kts
Gust
kts
Height
m
Period
s
Dir
24/11:30pm WNW 4 5 - - - - 10 Partly cloudy - 22.6 1010.3 0.0
24/11:00pm SW 5 6 - - - - 10 Partly cloudy - 23.4 1010.5 0.0
24/10:30pm W 5 7 - - - - 10 Partly cloudy - 23.3 1010.5 0.0
24/10:00pm SSE 6 8 - - - - 10 Partly cloudy - 25.0 1010.6 0.0
24/09:30pm SE 6 9 - - - - 10 - - 24.9 1010.5 0.0
24/09:00pm SE 7 9 - - - - 10 Cloudy - 24.9 1010.3 0.0
24/08:30pm SE 9 12 - - - - 10 - - 25.0 1010.2 0.0
24/08:00pm SE 7 10 - - - - 10 - - 24.9 1009.6 0.0
24/07:30pm SE 7 10 - - - - 10 Partly cloudy - 24.9 1009.7 0.0
24/07:00pm SE 8 11 - - - - 10 Partly cloudy - 25.0 1009.4 0.0
24/06:30pm SE 7 10 - - - - 10 Partly cloudy - 25.1 1009.4 0.0
24/06:00pm ESE 8 12 - - - - 10 - - 25.4 1009.1 0.0
24/05:30pm ESE 8 11 - - - - 10 - - 26.1 1008.8 0.0
24/05:00pm ESE 10 13 - - - - 10 - - 26.6 1008.7 0.0
24/04:30pm ESE 9 13 - - - - 10 - - 27.1 1008.4 0.0
24/04:00pm ESE 9 12 - - - - 10 - - 27.5 1008.4 0.0
24/03:30pm ESE 9 12 - - - - 10 - - 26.3 1008.8 0.0
24/03:00pm ESE 9 13 - - - - 10 - - 26.6 1009.0 0.0
24/02:30pm ESE 11 14 - - - - 10 - - 26.9 1009.1 0.0
24/02:00pm ESE 13 16 - - - - 10 - - 26.5 1009.3 0.0
24/01:30pm SE 11 14 - - - - 10 - - 27.0 1009.6 0.0
24/01:00pm SE 13 16 - - - - 10 - - 27.1 1009.8 0.0
24/12:30pm SE 12 15 - - - - 10 - - 27.6 1010.3 0.0
24/12:00pm SE 13 16 - - - - 10 - - 27.1 1010.7 0.0
24/11:30am SE 11 15 - - - - 10 Partly cloudy - 27.3 1011.0 0.0
24/11:00am SE 11 15 - - - - 10 Partly cloudy - 27.1 1011.4 0.0
24/10:30am SE 11 14 - - - - 10 - - 26.7 1011.5 0.0
24/10:00am SE 11 14 - - - - 10 - - 26.9 1011.7 0.0
24/09:30am SE 11 14 - - - - 10 - - 26.2 1011.9 0.0
24/09:00am S 9 13 - - - - 10 - - 26.1 1012.1 0.2
24/08:30am SSW 9 12 - - - - 10 - - 25.7 1012.1 0.2
24/08:00am S 10 13 - - - - 10 - - 25.2 1012.2 0.2
24/07:30am SSW 10 13 - - - - 10 - - 24.3 1012.2 0.2
24/07:00am SW 6 8 - - - - 10 - - 23.1 1012.0 0.2
24/06:30am SW 8 9 - - - - 10 - - 21.7 1011.9 0.2
24/06:00am WSW 6 8 - - - - 10 - - 20.5 1011.8 0.2
24/05:30am SW 5 6 - - - - 10 - - 19.4 1011.4 0.2
24/05:00am WSW 6 7 - - - - 10 - - 19.4 1011.4 0.2
24/04:30am WSW 6 7 - - - - 10 - - 19.4 1011.0 0.2
24/04:00am WSW 6 7 - - - - 10 - - 19.5 1010.8 0.2
24/03:30am SW 6 8 - - - - 10 - - 19.9 1010.6 0.2
24/03:00am SW 8 9 - - - - 10 Mostly clear - 20.1 1010.6 0.2
24/02:30am SW 6 7 - - - - 10 Partly cloudy - 20.4 1010.6 0.2
24/02:00am SW 7 9 - - - - 10 Partly cloudy - 20.5 1010.6 0.2
24/01:30am SW 7 9 - - - - 10 Partly cloudy - 20.4 1010.9 0.2
24/01:00am SW 7 8 - - - - 10 - - 20.1 1011.1 0.2
24/12:30am SW 5 6 - - - - 10 - - 20.3 1011.2 0.2
24/12:00am SW 6 7 - - - - 10 Mostly clear - 20.7 1011.5 0.2
 
Date/Time
EST
Wind Sea
Height
m
Swell Vis
km
Cloud Weather Temp
°C
Press
MSL
hPa
Rain since
9am
mm
Dir  Spd
kts
Gust
kts
Height
m
Period
s
Dir
23/11:30pm SW 6 8 - - - - 10 Partly cloudy - 20.8 1011.9 0.2
23/11:00pm SW 6 7 - - - - 10 Partly cloudy - 20.7 1012.2 0.2
23/10:30pm SW 6 8 - - - - 10 - - 20.8 1012.4 0.2
23/10:00pm WSW 6 7 - - - - 10 Partly cloudy - 21.0 1012.4 0.2
23/09:30pm WSW 6 8 - - - - 10 Partly cloudy - 21.9 1012.3 0.2
23/09:00pm SE 9 11 - - - - 10 Mostly clear - 24.1 1012.1 0.2
23/08:30pm SSE 11 13 - - - - 10 - - 24.1 1011.9 0.2
23/08:00pm SE 9 12 - - - - 10 Partly cloudy - 24.2 1011.7 0.2
23/07:30pm SE 10 13 - - - - 10 Partly cloudy - 24.3 1011.7 0.2
23/07:00pm SE 11 14 - - - - 10 Partly cloudy - 24.5 1011.7 0.2
23/06:30pm SE 12 17 - - - - 10 Partly cloudy - 24.8 1011.4 0.2
23/06:00pm SE 11 15 - - - - 10 Mostly clear - 25.1 1011.4 0.2
23/05:30pm SE 11 15 - - - - 10 - - 25.1 1011.2 0.2
23/05:00pm SE 11 13 - - - - 10 - - 25.8 1011.1 0.2
23/04:30pm SE 10 14 - - - - 10 - - 26.3 1011.0 0.2
23/04:00pm SE 11 15 - - - - 10 - - 26.3 1011.0 0.2
23/03:30pm ESE 13 18 - - - - 10 Partly cloudy - 25.7 1011.1 0.2
23/03:00pm SE 11 15 - - - - 10 - - 26.6 1011.2 0.2
23/02:30pm SE 12 15 - - - - 10 - - 26.7 1011.4 0.2
23/02:00pm SE 12 16 - - - - 10 - - 26.6 1011.9 0.2
23/01:30pm SE 14 17 - - - - 10 - - 26.7 1011.9 0.2
23/01:00pm SE 14 17 - - - - 10 Partly cloudy - 26.7 1012.2 0.2
23/12:30pm SSE 15 20 - - - - 10 Partly cloudy - 26.4 1012.4 0.2
23/12:00pm SSE 12 16 - - - - 10 Mostly cloudy - 26.7 1012.5 0.2
23/11:30am SSE 13 17 - - - - 10 Partly cloudy - 26.7 1012.9 0.2
23/11:00am SSE 16 21 - - - - 10 Partly cloudy - 26.2 1013.3 0.2
23/10:30am SSE 15 19 - - - - 10 Partly cloudy - 25.5 1013.5 0.2
23/10:00am SSE 13 18 - - - - 10 Partly cloudy - 25.8 1013.7 0.2
23/09:30am SSW 13 18 - - - - 10 Partly cloudy - 25.5 1013.8 0.0
23/09:00am S 12 17 - - - - 10 Mostly clear - 24.8 1013.9 1.4
23/08:30am S 13 18 - - - - 10 - - 23.9 1013.8 1.4
23/08:00am S 13 17 - - - - 10 - - 23.3 1013.8 1.4
23/07:30am SSW 13 19 - - - - 10 - - 22.5 1013.7 1.4
23/07:00am SSW 13 18 - - - - 10 - - 21.7 1013.7 1.4
23/06:30am SSW 12 16 - - - - 10 - - 21.0 1013.8 1.4
23/06:00am S 12 16 - - - - 10 - - 19.5 1013.5 1.4
23/05:30am S 11 15 - - - - 10 Partly cloudy - 19.3 1013.4 1.4
23/05:00am SSW 9 13 - - - - 10 Partly cloudy - 19.5 1013.4 1.4
23/04:45am SSW 6 8 - - - - 10 Partly cloudy - 19.2 1013.5 1.4
23/04:32am SSW 11 14 - - - - 6 Partly cloudy - 19.2 1013.6 1.4
23/04:30am SSW 11 14 - - - - 7 Partly cloudy - 19.3 1013.6 1.2
23/04:00am SW 7 9 - - - - 10 Partly cloudy - 19.7 1013.4 0.8
23/03:30am SW 8 11 - - - - 10 Partly cloudy - 19.9 1013.6 0.8
23/03:00am SW 8 10 - - - - 10 Cloudy Showers 19.8 1013.6 0.8
23/02:30am SW 8 11 - - - - 10 Partly cloudy - 20.2 1013.8 0.6
23/02:00am SW 9 11 - - - - 10 Partly cloudy - 20.3 1013.8 0.6
23/01:30am SSW 8 11 - - - - 10 Partly cloudy - 20.1 1014.0 0.6
23/01:00am S 14 19 - - - - 10 Partly cloudy - 20.4 1014.1 0.6
23/12:30am SSW 11 14 - - - - 10 Partly cloudy - 20.1 1014.3 0.6
23/12:00am S 12 18 - - - - 10 Mostly cloudy - 20.9 1014.6 0.6
 
Date/Time
EST
Wind Sea
Height
m
Swell Vis
km
Cloud Weather Temp
°C
Press
MSL
hPa
Rain since
9am
mm
Dir  Spd
kts
Gust
kts
Height
m
Period
s
Dir
22/11:30pm SSW 12 16 - - - - 10 Partly cloudy - 20.9 1014.9 0.6
22/11:00pm SSW 11 15 - - - - 10 Partly cloudy - 20.8 1015.2 0.6
22/10:30pm SSW 11 13 - - - - 10 - - 20.7 1015.2 0.6
22/10:00pm SSW 11 14 - - - - 10 - - 20.9 1015.4 0.6
22/09:30pm SSW 12 16 - - - - 10 Partly cloudy - 21.2 1015.5 0.6
22/09:00pm SSW 7 11 - - - - 10 Cloudy - 21.4 1015.3 0.6
22/08:30pm SSW 7 9 - - - - 10 Partly cloudy - 21.4 1015.1 0.6
22/08:00pm WSW 7 9 - - - - 10 Partly cloudy - 21.0 1015.1 0.6
22/07:30pm WSW 5 7 - - - - 10 Partly cloudy - 20.8 1015.2 0.4
22/07:00pm SW 7 10 - - - - 10 Partly cloudy - 21.3 1015.1 0.4

Other formats

Comma delimited format used in spreadsheet applications
http://www.bom.gov.au/fwo/IDQ60701/IDQ60701.94569.axf

JavaScript Object Notation format (JSON) in row-major order
http://www.bom.gov.au/fwo/IDQ60701/IDQ60701.94569.json

Data quality

Most of these data are generated automatically and are frequently updated. Quality checks on data are not normally performed. It is possible for incorrect values to appear. Refer to information at About Latest Weather Observations and please check the disclaimer before using these data.